Terminal Aerodrome Forecast
Issued by NWS

Home | Current Version | Previous Version | Text Only | Print | Product List | Glossary On
Versions: 1 2 3 4 5 6 7 8 9 10 11 12 13 14 15 16 17
915
FTUS46 KMTR 261738
TAFSJC
TAF
KSJC 261738Z 2618/2718 12009KT P6SM FEW014
     FM262000 30010KT P6SM SKC
     FM271000 13006KT P6SM OVC012
     FM271700 14009KT P6SM FEW012=

USA.gov is the U.S. government's official web portal to all federal, state and local government web resources and services.